Time;durP1;ratioP1;P1;durP2;ratioP2;P2;SDS_P1;SDS_P2;PMS_P1;PMS_P2;Temp;Humidity;BMP_temperature;BMP_pressure;BME280_temperature;BME280_humidity;BME280_pressure;Samples;Min_cycle;Max_cycle;Signal;HPM_P1;HPM_P2
2022/10/19 00:00:07;;;;;;;;;;;;;;;;;;4987606;28;19964;-80
2022/10/19 00:02:33;;;;;;;;;;;;;;;;;;4986697;28;19953;-81
2022/10/19 00:04:59;;;;;;;;;;;;;;;;;;4987490;28;19973;-80
2022/10/19 00:07:25;;;;;;;;;;;;;;;;;;4984646;28;19943;-81
2022/10/19 00:09:52;;;;;;;;;;;;;;;;;;4985625;28;19922;-80
2022/10/19 00:12:18;;;;;;;;;;;;;;;;;;4999243;28;19914;-80
2022/10/19 00:14:44;;;;;;;;;;;;;;;;;;5001523;28;19914;-80
2022/10/19 00:17:10;;;;;;;;;;;;;;;;;;4986768;28;19918;-80
2022/10/19 00:19:37;;;;;;;;;;;;;;;;;;5007088;28;19929;-80
2022/10/19 00:22:03;;;;;;;;;;;;;;;;;;5009246;28;19914;-80
2022/10/19 00:24:29;;;;;;;;;;;;;;;;;;5005492;28;19925;-80
2022/10/19 00:26:56;;;;;;;;;;;;;;;;;;4992084;28;19925;-80
2022/10/19 00:29:22;;;;;;;;;;;;;;;;;;4997508;28;19922;-80
2022/10/19 00:31:48;;;;;;;;;;;;;;;;;;4995349;28;19914;-80
2022/10/19 00:34:14;;;;;;;;;;;;;;;;;;4984909;28;19952;-80
2022/10/19 00:36:41;;;;;;;;;;;;;;;;;;4980164;28;19914;-80
2022/10/19 00:39:07;;;;;;;;;;;;;;;;;;4957546;28;19922;-80
2022/10/19 00:41:33;;;;;;;;;;;;;;;;;;4987447;28;19926;-81
2022/10/19 00:43:59;;;;;;;;;;;;;;;;;;4970106;28;19965;-80
2022/10/19 00:46:25;;;;;;;;;;;;;;;;;;4985715;28;19953;-79
2022/10/19 00:48:51;;;;;;;;;;;;;;;;;;4984977;28;20031;-80
2022/10/19 00:51:18;;;;;;;;;;;;;;;;;;4966131;28;20034;-79
2022/10/19 00:53:44;;;;;;;;;;;;;;;;;;4986809;28;19993;-79
2022/10/19 00:56:10;;;;;;;;;;;;;;;;;;4970385;28;20567;-80
2022/10/19 00:58:36;;;;;;;;;;;;;;;;;;4966252;28;20318;-80
2022/10/19 01:01:02;;;;;;;;;;;;;;;;;;4983184;28;20346;-81
2022/10/19 01:03:29;;;;;;;;;;;;;;;;;;4952711;28;19949;-80
2022/10/19 01:05:55;;;;;;;;;;;;;;;;;;4987128;28;19957;-81
2022/10/19 01:08:21;;;;;;;;;;;;;;;;;;4984930;28;19948;-79
2022/10/19 01:10:47;;;;;;;;;;;;;;;;;;4967602;28;19961;-80
2022/10/19 01:13:13;;;;;;;;;;;;;;;;;;4967510;28;20318;-80
2022/10/19 01:15:40;;;;;;;;;;;;;;;;;;4974249;28;19968;-80
2022/10/19 01:18:06;;;;;;;;;;;;;;;;;;4971089;28;20037;-81
2022/10/19 01:20:32;;;;;;;;;;;;;;;;;;4968519;28;19961;-81
2022/10/19 01:22:58;;;;;;;;;;;;;;;;;;4949957;28;19966;-80
2022/10/19 01:25:24;;;;;;;;;;;;;;;;;;4962751;28;20354;-80
2022/10/19 01:27:50;;;;;;;;;;;;;;;;;;4991391;28;19933;-79
2022/10/19 01:30:18;;;;;;;;;;;;;;;;;;4978365;28;20396;-79
2022/10/19 01:32:44;;;;;;;;;;;;;;;;;;4974464;28;19957;-80
2022/10/19 01:35:10;;;;;;;;;;;;;;;;;;4976528;28;19961;-80
2022/10/19 01:37:36;;;;;;;;;;;;;;;;;;4971610;28;19980;-80
2022/10/19 01:40:02;;;;;;;;;;;;;;;;;;4991423;28;19956;-80
2022/10/19 01:42:28;;;;;;;;;;;;;;;;;;4970645;28;20358;-81
2022/10/19 01:44:55;;;;;;;;;;;;;;;;;;4972936;28;19929;-79
2022/10/19 01:47:21;;;;;;;;;;;;;;;;;;4983734;28;19965;-79
2022/10/19 01:49:47;;;;;;;;;;;;;;;;;;4982530;28;19953;-80
2022/10/19 01:52:13;;;;;;;;;;;;;;;;;;4971188;28;19968;-79
2022/10/19 01:54:41;;;;;;;;;;;;;;;;;;4959288;28;19946;-80
2022/10/19 01:57:07;;;;;;;;;;;;;;;;;;4994940;28;19926;-80
2022/10/19 01:59:33;;;;;;;;;;;;;;;;;;4957197;28;20711;-80
2022/10/19 02:01:59;;;;;;;;;;;;;;;;;;4991965;28;19922;-80
2022/10/19 02:04:26;;;;;;;;;;;;;;;;;;4973351;28;19961;-80
2022/10/19 02:06:52;;;;;;;;;;;;;;;;;;4990794;28;19914;-80
2022/10/19 02:09:19;;;;;;;;;;;;;;;;;;4958950;28;19922;-80
2022/10/19 02:11:45;;;;;;;;;;;;;;;;;;4988895;28;20032;-80
2022/10/19 02:14:11;;;;;;;;;;;;;;;;;;4986154;28;20303;-79
2022/10/19 02:16:37;;;;;;;;;;;;;;;;;;4987482;28;19957;-79
2022/10/19 02:19:04;;;;;;;;;;;;;;;;;;4965616;28;20269;-81
2022/10/19 02:21:30;;;;;;;;;;;;;;;;;;4993147;28;19941;-81
2022/10/19 02:23:56;;;;;;;;;;;;;;;;;;4978393;28;19958;-80
2022/10/19 02:26:22;;;;;;;;;;;;;;;;;;4989328;28;20001;-80
2022/10/19 02:28:48;;;;;;;;;;;;;;;;;;4971159;28;20448;-81
2022/10/19 02:31:14;;;;;;;;;;;;;;;;;;4987561;28;20816;-80
2022/10/19 02:33:41;;;;;;;;;;;;;;;;;;4975662;28;19957;-80
2022/10/19 02:36:07;;;;;;;;;;;;;;;;;;4990578;28;19957;-81
2022/10/19 02:38:33;;;;;;;;;;;;;;;;;;4971452;28;19957;-79
2022/10/19 02:40:59;;;;;;;;;;;;;;;;;;4991735;28;19961;-79
2022/10/19 02:43:26;;;;;;;;;;;;;;;;;;4986814;28;19952;-80
2022/10/19 02:45:52;;;;;;;;;;;;;;;;;;4988040;28;20275;-80
2022/10/19 02:48:18;;;;;;;;;;;;;;;;;;4991900;28;19945;-80
2022/10/19 02:50:46;;;;;;;;;;;;;;;;;;4984682;28;20405;-79
2022/10/19 02:53:12;;;;;;;;;;;;;;;;;;4991551;28;19976;-79
2022/10/19 02:55:38;;;;;;;;;;;;;;;;;;4986016;28;19957;-79
2022/10/19 02:58:05;;;;;;;;;;;;;;;;;;4996517;28;19945;-80
2022/10/19 03:00:31;;;;;;;;;;;;;;;;;;4970981;28;19972;-80
2022/10/19 03:02:57;;;;;;;;;;;;;;;;;;4955269;28;19953;-80
2022/10/19 03:05:23;;;;;;;;;;;;;;;;;;4969728;28;19991;-79
2022/10/19 03:07:49;;;;;;;;;;;;;;;;;;4989611;28;19964;-79
2022/10/19 03:10:15;;;;;;;;;;;;;;;;;;4973626;28;19945;-79
2022/10/19 03:12:42;;;;;;;;;;;;;;;;;;4988613;28;20359;-80
2022/10/19 03:15:08;;;;;;;;;;;;;;;;;;4989825;28;19949;-80
2022/10/19 03:17:34;;;;;;;;;;;;;;;;;;4971355;28;19942;-82
2022/10/19 03:20:00;;;;;;;;;;;;;;;;;;4971334;28;19956;-80
2022/10/19 03:22:26;;;;;;;;;;;;;;;;;;4955023;28;19918;-81
2022/10/19 03:24:53;;;;;;;;;;;;;;;;;;4987548;28;19962;-81
2022/10/19 03:27:19;;;;;;;;;;;;;;;;;;4987468;28;19992;-81
2022/10/19 03:29:45;;;;;;;;;;;;;;;;;;4978694;28;19960;-81
2022/10/19 03:32:11;;;;;;;;;;;;;;;;;;4991970;28;19976;-82
2022/10/19 03:34:38;;;;;;;;;;;;;;;;;;4966124;28;20165;-82
2022/10/19 03:37:04;;;;;;;;;;;;;;;;;;4989163;28;19918;-82
2022/10/19 03:39:30;;;;;;;;;;;;;;;;;;4972646;28;19996;-81
2022/10/19 03:41:56;;;;;;;;;;;;;;;;;;4987788;28;19969;-81
2022/10/19 03:44:22;;;;;;;;;;;;;;;;;;4984736;28;19972;-81
2022/10/19 03:46:48;;;;;;;;;;;;;;;;;;4987791;28;19957;-81
2022/10/19 03:49:15;;;;;;;;;;;;;;;;;;4987416;28;19917;-81
2022/10/19 03:51:41;;;;;;;;;;;;;;;;;;4969223;28;20020;-80
2022/10/19 03:54:07;;;;;;;;;;;;;;;;;;4984941;28;19976;-80
2022/10/19 03:56:33;;;;;;;;;;;;;;;;;;4985868;28;20386;-79
2022/10/19 03:58:59;;;;;;;;;;;;;;;;;;4967763;28;19957;-78
2022/10/19 04:01:26;;;;;;;;;;;;;;;;;;4970501;28;20440;-79
2022/10/19 04:03:52;;;;;;;;;;;;;;;;;;4986407;28;19926;-80
2022/10/19 04:06:18;;;;;;;;;;;;;;;;;;4985919;28;20356;-79
2022/10/19 04:08:44;;;;;;;;;;;;;;;;;;4970560;28;19957;-82
2022/10/19 04:11:10;;;;;;;;;;;;;;;;;;4987044;28;19953;-81
2022/10/19 04:13:37;;;;;;;;;;;;;;;;;;4988768;28;19980;-81
2022/10/19 04:16:03;;;;;;;;;;;;;;;;;;4985378;28;19952;-79
2022/10/19 04:18:29;;;;;;;;;;;;;;;;;;4983923;28;19945;-79
2022/10/19 04:20:55;;;;;;;;;;;;;;;;;;4983929;28;19922;-78
2022/10/19 04:23:21;;;;;;;;;;;;;;;;;;4968165;28;19949;-78
2022/10/19 04:25:48;;;;;;;;;;;;;;;;;;4968577;28;19988;-81
2022/10/19 04:28:14;;;;;;;;;;;;;;;;;;4967131;28;19968;-78
2022/10/19 04:30:40;;;;;;;;;;;;;;;;;;4985667;28;19957;-78
2022/10/19 04:33:06;;;;;;;;;;;;;;;;;;4982572;28;19975;-78
2022/10/19 04:35:32;;;;;;;;;;;;;;;;;;4982869;28;19967;-79
2022/10/19 04:37:59;;;;;;;;;;;;;;;;;;4964942;28;19957;-78
2022/10/19 04:40:25;;;;;;;;;;;;;;;;;;4967761;28;19949;-78
2022/10/19 04:42:51;;;;;;;;;;;;;;;;;;4986616;28;19956;-79
2022/10/19 04:45:17;;;;;;;;;;;;;;;;;;4984178;28;19961;-79
2022/10/19 04:47:43;;;;;;;;;;;;;;;;;;4984942;28;19976;-78
2022/10/19 04:50:09;;;;;;;;;;;;;;;;;;4965624;28;19963;-79
2022/10/19 04:52:36;;;;;;;;;;;;;;;;;;4984680;28;19961;-79
2022/10/19 04:55:02;;;;;;;;;;;;;;;;;;4980045;28;19953;-79
2022/10/19 04:57:28;;;;;;;;;;;;;;;;;;4972154;28;19961;-79
2022/10/19 04:59:54;;;;;;;;;;;;;;;;;;4969858;28;19977;-78
2022/10/19 05:02:20;;;;;;;;;;;;;;;;;;4981431;28;19969;-79
2022/10/19 05:04:46;;;;;;;;;;;;;;;;;;4986608;28;20535;-79
2022/10/19 05:07:13;;;;;;;;;;;;;;;;;;4968432;28;19972;-78
2022/10/19 05:09:39;;;;;;;;;;;;;;;;;;4972567;28;19953;-78
2022/10/19 05:12:05;;;;;;;;;;;;;;;;;;4983644;28;19961;-78
2022/10/19 05:14:31;;;;;;;;;;;;;;;;;;4988236;28;19965;-79
2022/10/19 05:16:57;;;;;;;;;;;;;;;;;;4980176;28;19926;-78
2022/10/19 05:19:24;;;;;;;;;;;;;;;;;;4968827;28;19941;-78
2022/10/19 05:21:50;;;;;;;;;;;;;;;;;;4985139;28;19919;-77
2022/10/19 05:24:16;;;;;;;;;;;;;;;;;;4987647;28;19965;-77
2022/10/19 05:26:42;;;;;;;;;;;;;;;;;;4977490;28;19972;-78
2022/10/19 05:29:08;;;;;;;;;;;;;;;;;;4990641;28;20061;-78
2022/10/19 05:31:35;;;;;;;;;;;;;;;;;;4992756;28;20374;-78
2022/10/19 05:34:02;;;;;;;;;;;;;;;;;;4989894;28;19953;-78
2022/10/19 05:36:31;;;;;;;;;;;;;;;;;;4964379;28;19961;-78
2022/10/19 05:38:57;;;;;;;;;;;;;;;;;;4971582;28;20344;-76
2022/10/19 05:41:23;;;;;;;;;;;;;;;;;;4971370;28;19972;-78
2022/10/19 05:43:49;;;;;;;;;;;;;;;;;;4961905;28;19964;-78
2022/10/19 05:46:17;;;;;;;;;;;;;;;;;;4988540;28;19953;-78
2022/10/19 05:48:43;;;;;;;;;;;;;;;;;;4988443;28;19925;-78
2022/10/19 05:51:09;;;;;;;;;;;;;;;;;;4990020;28;19964;-78
2022/10/19 05:53:35;;;;;;;;;;;;;;;;;;4986693;28;19964;-78
2022/10/19 05:56:01;;;;;;;;;;;;;;;;;;4973000;28;19925;-79
2022/10/19 05:58:28;;;;;;;;;;;;;;;;;;4987794;28;19979;-78
2022/10/19 06:00:54;;;;;;;;;;;;;;;;;;4988935;28;19949;-78
2022/10/19 06:03:20;;;;;;;;;;;;;;;;;;4990975;28;20377;-77
2022/10/19 06:05:47;;;;;;;;;;;;;;;;;;4974975;28;20386;-78
2022/10/19 06:08:13;;;;;;;;;;;;;;;;;;4988724;28;19953;-77
2022/10/19 06:10:39;;;;;;;;;;;;;;;;;;4989438;28;20369;-77
2022/10/19 06:13:05;;;;;;;;;;;;;;;;;;4981183;28;19964;-79
2022/10/19 06:15:31;;;;;;;;;;;;;;;;;;4991514;28;19970;-80
2022/10/19 06:17:58;;;;;;;;;;;;;;;;;;4988353;28;19972;-81
2022/10/19 06:20:25;;;;;;;;;;;;;;;;;;4988273;28;19965;-81
2022/10/19 06:22:52;;;;;;;;;;;;;;;;;;4972841;28;19949;-79
2022/10/19 06:25:18;;;;;;;;;;;;;;;;;;4987956;28;19968;-77
2022/10/19 06:27:44;;;;;;;;;;;;;;;;;;4988432;28;19969;-76
2022/10/19 06:30:10;;;;;;;;;;;;;;;;;;4970666;28;20332;-77
2022/10/19 06:32:36;;;;;;;;;;;;;;;;;;4972183;28;20008;-75
2022/10/19 06:35:03;;;;;;;;;;;;;;;;;;4971836;28;19961;-74
2022/10/19 06:37:29;;;;;;;;;;;;;;;;;;4985178;28;19976;-75
2022/10/19 06:39:55;;;;;;;;;;;;;;;;;;4988328;28;20376;-75
2022/10/19 06:42:21;;;;;;;;;;;;;;;;;;4971037;28;19949;-76
2022/10/19 06:44:47;;;;;;;;;;;;;;;;;;4970426;28;19976;-76
2022/10/19 06:47:14;;;;;;;;;;;;;;;;;;4986131;28;20064;-75
2022/10/19 06:49:40;;;;;;;;;;;;;;;;;;4975609;28;20330;-76
2022/10/19 06:52:06;;;;;;;;;;;;;;;;;;4978653;28;19953;-75
2022/10/19 06:54:32;;;;;;;;;;;;;;;;;;4986681;28;19948;-76
2022/10/19 06:56:59;;;;;;;;;;;;;;;;;;4971310;28;19954;-76
2022/10/19 06:59:25;;;;;;;;;;;;;;;;;;4972106;28;19961;-76
2022/10/19 07:01:51;;;;;;;;;;;;;;;;;;4986967;28;20597;-75
2022/10/19 07:04:17;;;;;;;;;;;;;;;;;;4973910;28;19992;-75
2022/10/19 07:06:44;;;;;;;;;;;;;;;;;;4987349;28;20025;-75
2022/10/19 07:09:10;;;;;;;;;;;;;;;;;;4974790;28;19957;-76
2022/10/19 07:11:36;;;;;;;;;;;;;;;;;;4985652;28;19949;-75
2022/10/19 07:14:02;;;;;;;;;;;;;;;;;;4988400;28;20404;-75
2022/10/19 07:16:28;;;;;;;;;;;;;;;;;;4986990;28;19976;-76
2022/10/19 07:18:55;;;;;;;;;;;;;;;;;;4981699;28;20048;-76
2022/10/19 07:21:21;;;;;;;;;;;;;;;;;;4980155;28;20372;-80
2022/10/19 07:23:47;;;;;;;;;;;;;;;;;;4987445;28;20381;-75
2022/10/19 07:26:13;;;;;;;;;;;;;;;;;;4970235;28;19969;-74
2022/10/19 07:28:40;;;;;;;;;;;;;;;;;;4953909;28;20007;-79
2022/10/19 07:31:06;;;;;;;;;;;;;;;;;;4984484;28;19922;-75
2022/10/19 07:33:32;;;;;;;;;;;;;;;;;;4985727;28;19961;-75
2022/10/19 07:35:58;;;;;;;;;;;;;;;;;;4971124;28;20366;-75
2022/10/19 07:38:25;;;;;;;;;;;;;;;;;;4979596;28;19922;-75
2022/10/19 07:40:51;;;;;;;;;;;;;;;;;;4986785;28;20447;-76
2022/10/19 07:43:17;;;;;;;;;;;;;;;;;;4989176;28;19953;-76
2022/10/19 07:45:43;;;;;;;;;;;;;;;;;;4988692;28;19980;-76
2022/10/19 07:48:09;;;;;;;;;;;;;;;;;;4988191;28;20721;-76
2022/10/19 07:50:35;;;;;;;;;;;;;;;;;;4992695;28;19981;-75
2022/10/19 07:53:04;;;;;;;;;;;;;;;;;;4980375;28;20357;-76
2022/10/19 07:55:30;;;;;;;;;;;;;;;;;;4985462;28;19918;-75
2022/10/19 07:58:00;;;;;;;;;;;;;;;;;;4987973;28;20358;-75
2022/10/19 08:00:26;;;;;;;;;;;;;;;;;;4986433;28;19961;-75
2022/10/19 08:02:52;;;;;;;;;;;;;;;;;;4997260;28;19965;-76
2022/10/19 08:05:18;;;;;;;;;;;;;;;;;;4986481;28;19972;-76
2022/10/19 08:07:45;;;;;;;;;;;;;;;;;;4989537;28;19953;-75
2022/10/19 08:10:11;;;;;;;;;;;;;;;;;;4987310;28;19945;-76
2022/10/19 08:12:38;;;;;;;;;;;;;;;;;;4985491;28;19921;-75
2022/10/19 08:15:05;;;;;;;;;;;;;;;;;;4984093;28;19964;-76
2022/10/19 08:17:32;;;;;;;;;;;;;;;;;;4988508;28;19918;-77
2022/10/19 08:19:58;;;;;;;;;;;;;;;;;;4983447;28;19961;-76
2022/10/19 08:22:24;;;;;;;;;;;;;;;;;;4980096;28;20059;-75
2022/10/19 08:24:50;;;;;;;;;;;;;;;;;;4987089;28;19975;-76
2022/10/19 08:27:16;;;;;;;;;;;;;;;;;;4995153;28;19976;-75
2022/10/19 08:29:43;;;;;;;;;;;;;;;;;;4986042;28;19922;-76
2022/10/19 08:32:09;;;;;;;;;;;;;;;;;;4986740;28;19953;-76
2022/10/19 08:34:35;;;;;;;;;;;;;;;;;;4970786;28;20000;-76
2022/10/19 08:37:01;;;;;;;;;;;;;;;;;;4986883;28;20373;-76
2022/10/19 08:39:27;;;;;;;;;;;;;;;;;;4983686;28;19980;-76
2022/10/19 08:41:54;;;;;;;;;;;;;;;;;;4969825;28;19957;-74
2022/10/19 08:44:20;;;;;;;;;;;;;;;;;;4989254;28;19930;-75
2022/10/19 08:46:46;;;;;;;;;;;;;;;;;;4991298;28;19961;-75
2022/10/19 08:49:12;;;;;;;;;;;;;;;;;;4986514;28;19960;-76
2022/10/19 08:51:38;;;;;;;;;;;;;;;;;;4994088;28;19942;-75
2022/10/19 08:54:10;;;;;;;;;;;;;;;;;;4989951;28;19922;-77
2022/10/19 08:56:37;;;;;;;;;;;;;;;;;;4982761;28;20403;-75
2022/10/19 08:59:03;;;;;;;;;;;;;;;;;;4965946;28;19949;-76
2022/10/19 09:01:29;;;;;;;;;;;;;;;;;;4987128;28;19957;-75
2022/10/19 09:03:55;;;;;;;;;;;;;;;;;;4990015;28;19953;-75
2022/10/19 09:06:22;;;;;;;;;;;;;;;;;;4985859;28;19972;-77
2022/10/19 09:08:48;;;;;;;;;;;;;;;;;;4986311;28;19960;-76
2022/10/19 09:11:14;;;;;;;;;;;;;;;;;;4984279;28;19954;-76
2022/10/19 09:13:40;;;;;;;;;;;;;;;;;;4983167;28;20327;-76
2022/10/19 09:16:06;;;;;;;;;;;;;;;;;;4986916;28;19953;-76
2022/10/19 09:18:33;;;;;;;;;;;;;;;;;;4982253;28;20797;-76
2022/10/19 09:20:59;;;;;;;;;;;;;;;;;;4985768;28;19965;-75
2022/10/19 09:23:25;;;;;;;;;;;;;;;;;;4983480;28;19961;-75
2022/10/19 09:25:51;;;;;;;;;;;;;;;;;;4991192;28;19925;-75
2022/10/19 09:28:17;;;;;;;;;;;;;;;;;;4984910;28;19958;-75
2022/10/19 09:30:44;;;;;;;;;;;;;;;;;;4986576;28;19957;-76
2022/10/19 09:33:10;;;;;;;;;;;;;;;;;;4976040;28;19965;-76
2022/10/19 09:35:36;;;;;;;;;;;;;;;;;;4985478;28;20660;-76
2022/10/19 09:38:02;;;;;;;;;;;;;;;;;;4969937;28;19953;-76
2022/10/19 09:40:28;;;;;;;;;;;;;;;;;;4983944;28;20386;-76
2022/10/19 09:42:58;;;;;;;;;;;;;;;;;;4985991;28;19957;-76
2022/10/19 09:45:24;;;;;;;;;;;;;;;;;;4984606;28;19968;-77
2022/10/19 09:47:50;;;;;;;;;;;;;;;;;;4987698;28;19949;-76
2022/10/19 09:50:16;;;;;;;;;;;;;;;;;;4984392;28;19918;-75
2022/10/19 09:52:43;;;;;;;;;;;;;;;;;;4983944;28;19949;-76
2022/10/19 09:55:09;;;;;;;;;;;;;;;;;;4975064;28;19977;-76
2022/10/19 09:57:35;;;;;;;;;;;;;;;;;;4959485;28;19961;-75
2022/10/19 10:00:01;;;;;;;;;;;;;;;;;;4973056;28;20333;-76
2022/10/19 10:02:27;;;;;;;;;;;;;;;;;;4971528;28;19942;-76
2022/10/19 10:04:54;;;;;;;;;;;;;;;;;;4988458;28;19949;-76
2022/10/19 10:07:20;;;;;;;;;;;;;;;;;;4989554;28;20412;-76
2022/10/19 10:09:46;;;;;;;;;;;;;;;;;;4994376;28;19945;-76
2022/10/19 10:12:12;;;;;;;;;;;;;;;;;;4988900;28;20720;-76
2022/10/19 10:14:39;;;;;;;;;;;;;;;;;;4988344;28;19953;-76
2022/10/19 10:17:05;;;;;;;;;;;;;;;;;;4988462;28;19979;-76
2022/10/19 10:19:31;;;;;;;;;;;;;;;;;;4989161;28;20266;-76
2022/10/19 10:21:59;;;;;;;;;;;;;;;;;;4989167;28;19965;-75
2022/10/19 10:24:25;;;;;;;;;;;;;;;;;;4987824;28;19996;-76
2022/10/19 10:26:51;;;;;;;;;;;;;;;;;;4990849;28;19965;-76
2022/10/19 10:29:18;;;;;;;;;;;;;;;;;;4991371;28;20712;-76
2022/10/19 10:31:45;;;;;;;;;;;;;;;;;;4988667;28;19952;-77
2022/10/19 10:34:11;;;;;;;;;;;;;;;;;;4976468;28;19953;-77
2022/10/19 10:36:37;;;;;;;;;;;;;;;;;;4968807;28;19985;-77
2022/10/19 10:39:03;;;;;;;;;;;;;;;;;;4970755;28;19961;-76
2022/10/19 10:41:29;;;;;;;;;;;;;;;;;;4954183;28;19968;-76
2022/10/19 10:43:56;;;;;;;;;;;;;;;;;;4988535;28;19964;-76
2022/10/19 10:46:22;;;;;;;;;;;;;;;;;;4987030;28;19987;-76
2022/10/19 10:48:48;;;;;;;;;;;;;;;;;;4973867;28;19960;-76
2022/10/19 10:51:14;;;;;;;;;;;;;;;;;;4971395;28;19917;-77
2022/10/19 10:53:42;;;;;;;;;;;;;;;;;;4969952;28;20361;-77
2022/10/19 10:56:08;;;;;;;;;;;;;;;;;;4988959;28;19949;-77
2022/10/19 10:58:34;;;;;;;;;;;;;;;;;;4987118;28;20378;-77
2022/10/19 11:01:00;;;;;;;;;;;;;;;;;;4988473;28;20398;-78
2022/10/19 11:03:31;;;;;;;;;;;;;;;;;;4987065;28;19960;-77
2022/10/19 11:05:57;;;;;;;;;;;;;;;;;;4985461;28;19965;-77
2022/10/19 11:08:24;;;;;;;;;;;;;;;;;;4970497;28;19976;-77
2022/10/19 11:10:50;;;;;;;;;;;;;;;;;;4989058;28;20408;-77
2022/10/19 11:13:16;;;;;;;;;;;;;;;;;;4987479;28;19961;-75
2022/10/19 11:15:42;;;;;;;;;;;;;;;;;;4986522;28;19957;-77
2022/10/19 11:18:08;;;;;;;;;;;;;;;;;;4957068;28;20233;-78
2022/10/19 11:20:34;;;;;;;;;;;;;;;;;;4986228;28;19952;-76
2022/10/19 11:23:01;;;;;;;;;;;;;;;;;;4963535;28;19918;-76
2022/10/19 11:25:27;;;;;;;;;;;;;;;;;;4987337;28;19985;-78
2022/10/19 11:27:53;;;;;;;;;;;;;;;;;;4989305;28;19964;-77
2022/10/19 11:30:19;;;;;;;;;;;;;;;;;;4968055;28;20340;-77
2022/10/19 11:32:46;;;;;;;;;;;;;;;;;;4987751;28;19964;-76
2022/10/19 11:35:12;;;;;;;;;;;;;;;;;;4987637;28;19964;-76
2022/10/19 11:37:38;;;;;;;;;;;;;;;;;;4968973;28;20004;-76
2022/10/19 11:40:04;;;;;;;;;;;;;;;;;;4969355;28;19987;-77
2022/10/19 11:42:30;;;;;;;;;;;;;;;;;;4986439;28;19957;-77
2022/10/19 11:44:57;;;;;;;;;;;;;;;;;;4987437;28;20045;-77
2022/10/19 11:47:23;;;;;;;;;;;;;;;;;;4969232;28;19964;-77
2022/10/19 11:49:51;;;;;;;;;;;;;;;;;;4986358;28;20031;-76
2022/10/19 11:52:17;;;;;;;;;;;;;;;;;;4989673;28;19949;-76
2022/10/19 11:54:44;;;;;;;;;;;;;;;;;;4988833;28;20452;-77
2022/10/19 11:57:10;;;;;;;;;;;;;;;;;;4985392;28;19969;-76
2022/10/19 11:59:36;;;;;;;;;;;;;;;;;;4968298;28;19960;-76
2022/10/19 12:02:02;;;;;;;;;;;;;;;;;;4990617;28;19945;-76
2022/10/19 12:04:28;;;;;;;;;;;;;;;;;;4971957;28;19971;-76
2022/10/19 12:06:55;;;;;;;;;;;;;;;;;;4987579;28;20366;-77
2022/10/19 12:09:21;;;;;;;;;;;;;;;;;;4985349;28;20400;-77
2022/10/19 12:11:47;;;;;;;;;;;;;;;;;;4976807;28;19945;-76
2022/10/19 12:14:13;;;;;;;;;;;;;;;;;;4987849;28;20443;-76
2022/10/19 12:16:39;;;;;;;;;;;;;;;;;;4975827;28;19953;-77
2022/10/19 12:19:05;;;;;;;;;;;;;;;;;;4984538;28;20443;-78
2022/10/19 12:21:32;;;;;;;;;;;;;;;;;;4983012;28;19953;-77
2022/10/19 12:23:58;;;;;;;;;;;;;;;;;;4971120;28;19961;-77
2022/10/19 12:26:24;;;;;;;;;;;;;;;;;;4970793;28;19999;-76
2022/10/19 12:28:50;;;;;;;;;;;;;;;;;;4970059;28;19972;-77
2022/10/19 12:31:16;;;;;;;;;;;;;;;;;;4971019;28;19914;-76
2022/10/19 12:33:45;;;;;;;;;;;;;;;;;;4979484;28;20530;-77
2022/10/19 12:36:11;;;;;;;;;;;;;;;;;;4985735;28;19941;-77
2022/10/19 12:38:37;;;;;;;;;;;;;;;;;;4985994;28;20362;-77
2022/10/19 12:41:04;;;;;;;;;;;;;;;;;;4986247;28;19957;-76
2022/10/19 12:43:30;;;;;;;;;;;;;;;;;;4985185;28;19953;-78
2022/10/19 12:45:56;;;;;;;;;;;;;;;;;;4986362;28;19957;-77
2022/10/19 12:48:23;;;;;;;;;;;;;;;;;;4984931;28;19992;-78
2022/10/19 12:50:51;;;;;;;;;;;;;;;;;;4978307;28;19975;-77
2022/10/19 12:53:17;;;;;;;;;;;;;;;;;;4985019;28;19957;-77
2022/10/19 12:55:43;;;;;;;;;;;;;;;;;;4985968;28;19995;-76
2022/10/19 12:58:09;;;;;;;;;;;;;;;;;;4988800;28;19960;-77
2022/10/19 13:00:36;;;;;;;;;;;;;;;;;;4993981;28;20039;-77
2022/10/19 13:03:02;;;;;;;;;;;;;;;;;;4969631;28;19956;-77
2022/10/19 13:05:28;;;;;;;;;;;;;;;;;;4987828;28;19976;-76
2022/10/19 13:07:54;;;;;;;;;;;;;;;;;;4987233;28;19960;-77
2022/10/19 13:10:20;;;;;;;;;;;;;;;;;;4971215;28;19957;-76
2022/10/19 13:12:47;;;;;;;;;;;;;;;;;;4986273;28;19953;-77
2022/10/19 13:15:13;;;;;;;;;;;;;;;;;;4984222;28;19969;-77
2022/10/19 13:17:39;;;;;;;;;;;;;;;;;;4984498;28;19956;-78
2022/10/19 13:20:05;;;;;;;;;;;;;;;;;;4965711;28;19977;-76
2022/10/19 13:22:32;;;;;;;;;;;;;;;;;;4984966;28;20405;-76
2022/10/19 13:24:58;;;;;;;;;;;;;;;;;;4985517;28;19968;-76
2022/10/19 13:27:24;;;;;;;;;;;;;;;;;;4986248;28;20365;-76
2022/10/19 13:29:51;;;;;;;;;;;;;;;;;;4957828;28;19957;-76
2022/10/19 13:32:17;;;;;;;;;;;;;;;;;;4989807;28;19957;-76
2022/10/19 13:34:43;;;;;;;;;;;;;;;;;;4989993;28;19986;-76
2022/10/19 13:37:09;;;;;;;;;;;;;;;;;;4957152;28;19922;-75
2022/10/19 13:39:36;;;;;;;;;;;;;;;;;;4971353;28;20373;-76
2022/10/19 13:42:02;;;;;;;;;;;;;;;;;;4990629;28;19948;-76
2022/10/19 13:44:29;;;;;;;;;;;;;;;;;;4988845;28;20011;-76
2022/10/19 13:46:55;;;;;;;;;;;;;;;;;;4996433;28;19964;-76
2022/10/19 13:49:22;;;;;;;;;;;;;;;;;;4989717;28;19949;-76
2022/10/19 13:51:48;;;;;;;;;;;;;;;;;;4988849;28;19929;-76
2022/10/19 13:54:14;;;;;;;;;;;;;;;;;;4988915;28;19976;-77
2022/10/19 13:56:40;;;;;;;;;;;;;;;;;;4988761;28;20279;-77
2022/10/19 13:59:06;;;;;;;;;;;;;;;;;;4989427;28;19957;-76
2022/10/19 14:01:33;;;;;;;;;;;;;;;;;;4988674;28;19921;-76
2022/10/19 14:03:59;;;;;;;;;;;;;;;;;;4989277;28;20025;-77
2022/10/19 14:06:25;;;;;;;;;;;;;;;;;;4988325;28;19987;-77
2022/10/19 14:08:52;;;;;;;;;;;;;;;;;;4987923;28;21620;-77
2022/10/19 14:11:18;;;;;;;;;;;;;;;;;;4971439;28;19945;-77
2022/10/19 14:13:44;;;;;;;;;;;;;;;;;;4988697;28;19968;-75
2022/10/19 14:16:11;;;;;;;;;;;;;;;;;;4992434;28;19968;-75
2022/10/19 14:18:37;;;;;;;;;;;;;;;;;;4985533;28;19957;-76
2022/10/19 14:21:03;;;;;;;;;;;;;;;;;;4995068;28;19957;-77
2022/10/19 14:23:29;;;;;;;;;;;;;;;;;;4986314;28;20591;-78
2022/10/19 14:25:55;;;;;;;;;;;;;;;;;;4971112;28;19969;-77
2022/10/19 14:28:21;;;;;;;;;;;;;;;;;;4977875;28;20355;-76
2022/10/19 14:30:48;;;;;;;;;;;;;;;;;;4996151;28;20389;-76
2022/10/19 14:33:16;;;;;;;;;;;;;;;;;;4984863;28;19992;-76
2022/10/19 14:35:43;;;;;;;;;;;;;;;;;;4987887;28;19949;-76
2022/10/19 14:38:10;;;;;;;;;;;;;;;;;;4970560;28;19918;-76
2022/10/19 14:40:36;;;;;;;;;;;;;;;;;;4987572;28;21492;-76
2022/10/19 14:43:02;;;;;;;;;;;;;;;;;;4976777;28;20356;-76
2022/10/19 14:45:28;;;;;;;;;;;;;;;;;;4987486;28;19921;-75
2022/10/19 14:47:54;;;;;;;;;;;;;;;;;;4993973;28;19918;-76
2022/10/19 14:50:21;;;;;;;;;;;;;;;;;;4987183;28;19969;-76
2022/10/19 14:52:47;;;;;;;;;;;;;;;;;;4979226;28;19960;-77
2022/10/19 14:55:13;;;;;;;;;;;;;;;;;;4988238;28;19968;-77
2022/10/19 14:57:39;;;;;;;;;;;;;;;;;;4990359;28;20364;-78
2022/10/19 15:00:08;;;;;;;;;;;;;;;;;;4969997;28;19964;-77
2022/10/19 15:02:34;;;;;;;;;;;;;;;;;;4985421;28;19957;-76
2022/10/19 15:05:01;;;;;;;;;;;;;;;;;;4987020;28;19972;-77
2022/10/19 15:07:27;;;;;;;;;;;;;;;;;;4984316;28;20349;-77
2022/10/19 15:09:53;;;;;;;;;;;;;;;;;;4985751;28;19961;-76
2022/10/19 15:12:19;;;;;;;;;;;;;;;;;;4986769;28;19964;-76
2022/10/19 15:14:45;;;;;;;;;;;;;;;;;;4987381;28;20019;-76
2022/10/19 15:17:12;;;;;;;;;;;;;;;;;;4970107;28;19922;-76
2022/10/19 15:19:38;;;;;;;;;;;;;;;;;;4983606;28;19948;-77
2022/10/19 15:22:04;;;;;;;;;;;;;;;;;;4986746;28;19971;-77
2022/10/19 15:24:30;;;;;;;;;;;;;;;;;;4983800;28;19925;-77
2022/10/19 15:26:56;;;;;;;;;;;;;;;;;;4979825;28;19992;-81
2022/10/19 15:29:22;;;;;;;;;;;;;;;;;;4987407;28;19968;-78
2022/10/19 15:31:49;;;;;;;;;;;;;;;;;;4971316;28;19964;-78
2022/10/19 15:34:15;;;;;;;;;;;;;;;;;;4969924;28;19949;-77
2022/10/19 15:36:41;;;;;;;;;;;;;;;;;;4986095;28;19984;-77
2022/10/19 15:39:07;;;;;;;;;;;;;;;;;;4977866;28;19991;-77
2022/10/19 15:41:33;;;;;;;;;;;;;;;;;;4987801;28;19956;-77
2022/10/19 15:44:02;;;;;;;;;;;;;;;;;;4991411;28;19926;-77
2022/10/19 15:46:30;;;;;;;;;;;;;;;;;;4993625;28;19936;-77
2022/10/19 15:48:56;;;;;;;;;;;;;;;;;;4975355;28;19921;-78
2022/10/19 15:51:23;;;;;;;;;;;;;;;;;;4974345;28;19922;-78
2022/10/19 15:53:49;;;;;;;;;;;;;;;;;;4970621;28;20036;-79
2022/10/19 15:56:16;;;;;;;;;;;;;;;;;;4987139;28;19977;-79
2022/10/19 15:58:42;;;;;;;;;;;;;;;;;;4984942;28;20415;-78
2022/10/19 16:01:08;;;;;;;;;;;;;;;;;;4983578;28;20589;-77
2022/10/19 16:03:34;;;;;;;;;;;;;;;;;;4955668;28;19953;-76
2022/10/19 16:06:01;;;;;;;;;;;;;;;;;;4987542;28;19969;-76
2022/10/19 16:08:27;;;;;;;;;;;;;;;;;;4957934;28;20378;-76
2022/10/19 16:10:53;;;;;;;;;;;;;;;;;;4986650;28;19953;-76
2022/10/19 16:13:20;;;;;;;;;;;;;;;;;;4983145;28;20653;-77
2022/10/19 16:15:46;;;;;;;;;;;;;;;;;;4986572;28;19957;-76
2022/10/19 16:18:12;;;;;;;;;;;;;;;;;;4970184;28;20006;-77
2022/10/19 16:20:39;;;;;;;;;;;;;;;;;;4984975;28;20412;-76
2022/10/19 16:23:05;;;;;;;;;;;;;;;;;;4986480;28;19949;-78
2022/10/19 16:25:31;;;;;;;;;;;;;;;;;;4992033;28;20065;-80
2022/10/19 16:27:57;;;;;;;;;;;;;;;;;;4983132;28;19938;-75
2022/10/19 16:30:23;;;;;;;;;;;;;;;;;;4986679;28;20352;-79
2022/10/19 16:32:50;;;;;;;;;;;;;;;;;;4986386;28;19957;-76
2022/10/19 16:35:16;;;;;;;;;;;;;;;;;;4989470;28;19921;-76
2022/10/19 16:37:42;;;;;;;;;;;;;;;;;;4986202;28;21678;-76